sensor_id;sensor_type;location;lat;lon;timestamp;pressure;altitude;pressure_sealevel;temperature;humidity
68489;BME280;55481;48.764;8.936;2023-11-19T00:00:10;96890;;;7.4;83
68489;BME280;55481;48.764;8.936;2023-11-19T00:02:41;96880;;;7.5;83.5
68489;BME280;55481;48.764;8.936;2023-11-19T00:05:05;96880;;;7.5;83.5
68489;BME280;55481;48.764;8.936;2023-11-19T00:07:35;96880;;;7.5;83.5
68489;BME280;55481;48.764;8.936;2023-11-19T00:10:09;96870;;;7.5;83.5
68489;BME280;55481;48.764;8.936;2023-11-19T00:12:41;96860;;;7.6;83.5
68489;BME280;55481;48.764;8.936;2023-11-19T00:20:09;96840;;;7.8;83
68489;BME280;55481;48.764;8.936;2023-11-19T00:22:41;96850;;;8;82.5
68489;BME280;55481;48.764;8.936;2023-11-19T00:27:48;96840;;;8.2;82
68489;BME280;55481;48.764;8.936;2023-11-19T00:30:18;96830;;;8.3;82
68489;BME280;55481;48.764;8.936;2023-11-19T00:32:50;96830;;;8.4;82
68489;BME280;55481;48.764;8.936;2023-11-19T00:35:21;96830;;;8.4;82
68489;BME280;55481;48.764;8.936;2023-11-19T00:37:51;96830;;;8.4;82
68489;BME280;55481;48.764;8.936;2023-11-19T00:40:22;96820;;;8.4;82.5
68489;BME280;55481;48.764;8.936;2023-11-19T00:45:17;96820;;;8.4;82.5
68489;BME280;55481;48.764;8.936;2023-11-19T00:50:19;96820;;;8.5;82.5
68489;BME280;55481;48.764;8.936;2023-11-19T00:53:09;96820;;;8.6;82.5
68489;BME280;55481;48.764;8.936;2023-11-19T00:55:33;96810;;;8.7;82.5
68489;BME280;55481;48.764;8.936;2023-11-19T00:58:10;96810;;;8.7;82.5
68489;BME280;55481;48.764;8.936;2023-11-19T01:00:40;96810;;;8.6;82.5
68489;BME280;55481;48.764;8.936;2023-11-19T01:03:04;96810;;;8.7;82.5
68489;BME280;55481;48.764;8.936;2023-11-19T01:08:05;96810;;;8.8;82.5
68489;BME280;55481;48.764;8.936;2023-11-19T01:10:36;96810;;;8.8;82.5
68489;BME280;55481;48.764;8.936;2023-11-19T01:13:05;96810;;;8.8;82.5
68489;BME280;55481;48.764;8.936;2023-11-19T01:15:35;96810;;;8.8;82.5
68489;BME280;55481;48.764;8.936;2023-11-19T01:18:04;96800;;;8.9;82.5
68489;BME280;55481;48.764;8.936;2023-11-19T01:20:35;96800;;;8.9;82.5
68489;BME280;55481;48.764;8.936;2023-11-19T01:25:31;96800;;;8.9;82.5
68489;BME280;55481;48.764;8.936;2023-11-19T01:28:00;96790;;;8.9;82.5
68489;BME280;55481;48.764;8.936;2023-11-19T01:30:30;96790;;;8.9;82.5
68489;BME280;55481;48.764;8.936;2023-11-19T01:33:02;96790;;;8.9;83
68489;BME280;55481;48.764;8.936;2023-11-19T01:35:33;96790;;;9;82.5
68489;BME280;55481;48.764;8.936;2023-11-19T01:40:28;96790;;;9.1;82.5
68489;BME280;55481;48.764;8.936;2023-11-19T01:48:00;96790;;;9.1;82.5
68489;BME280;55481;48.764;8.936;2023-11-19T01:50:31;96790;;;9.1;82.5
68489;BME280;55481;48.764;8.936;2023-11-19T01:53:01;96790;;;9.1;82.5
68489;BME280;55481;48.764;8.936;2023-11-19T01:55:33;96780;;;9.1;82.5
68489;BME280;55481;48.764;8.936;2023-11-19T02:00:40;96780;;;9.1;82.5
68489;BME280;55481;48.764;8.936;2023-11-19T02:03:17;96780;;;9;82.5
68489;BME280;55481;48.764;8.936;2023-11-19T02:05:42;96790;;;9.1;83
68489;BME280;55481;48.764;8.936;2023-11-19T02:13:20;96780;;;9.2;82.5
68489;BME280;55481;48.764;8.936;2023-11-19T02:15:51;96780;;;9.2;82.5
68489;BME280;55481;48.764;8.936;2023-11-19T02:20:46;96770;;;9.2;82.5
68489;BME280;55481;48.764;8.936;2023-11-19T02:23:17;96770;;;9.2;82.5
68489;BME280;55481;48.764;8.936;2023-11-19T02:28:19;96750;;;9.2;82.5
68489;BME280;55481;48.764;8.936;2023-11-19T02:30:49;96760;;;9.2;82.5
68489;BME280;55481;48.764;8.936;2023-11-19T02:33:20;96760;;;9.2;82.5
68489;BME280;55481;48.764;8.936;2023-11-19T02:35:51;96750;;;9.2;82.5
68489;BME280;55481;48.764;8.936;2023-11-19T02:38:22;96750;;;9.2;82.5
68489;BME280;55481;48.764;8.936;2023-11-19T02:40:53;96750;;;9.2;82.5
68489;BME280;55481;48.764;8.936;2023-11-19T02:43:24;96760;;;9.2;82.5
68489;BME280;55481;48.764;8.936;2023-11-19T02:46:02;96760;;;9.3;82.5
68489;BME280;55481;48.764;8.936;2023-11-19T02:48:33;96760;;;9.4;82.5
68489;BME280;55481;48.764;8.936;2023-11-19T02:53:28;96750;;;9.4;82.5
68489;BME280;55481;48.764;8.936;2023-11-19T02:58:43;96740;;;9.5;82.5
68489;BME280;55481;48.764;8.936;2023-11-19T03:01:06;96750;;;9.6;82
68489;BME280;55481;48.764;8.936;2023-11-19T03:03:30;96760;;;9.6;82
68489;BME280;55481;48.764;8.936;2023-11-19T03:06:00;96760;;;9.6;82
68489;BME280;55481;48.764;8.936;2023-11-19T03:08:32;96760;;;9.5;82
68489;BME280;55481;48.764;8.936;2023-11-19T03:15:58;96760;;;9.6;82
68489;BME280;55481;48.764;8.936;2023-11-19T03:18:28;96760;;;9.6;82
68489;BME280;55481;48.764;8.936;2023-11-19T03:21:00;96760;;;9.6;82.5
68489;BME280;55481;48.764;8.936;2023-11-19T03:23:29;96760;;;9.7;82.5
68489;BME280;55481;48.764;8.936;2023-11-19T03:26:07;96760;;;9.6;82.5
68489;BME280;55481;48.764;8.936;2023-11-19T03:28:37;96760;;;9.6;82.5
68489;BME280;55481;48.764;8.936;2023-11-19T03:33:33;96760;;;9.6;82.5
68489;BME280;55481;48.764;8.936;2023-11-19T03:43:35;96750;;;9.7;82.5
68489;BME280;55481;48.764;8.936;2023-11-19T03:46:15;96750;;;9.7;82.5
68489;BME280;55481;48.764;8.936;2023-11-19T03:48:36;96750;;;9.7;82.5
68489;BME280;55481;48.764;8.936;2023-11-19T03:51:07;96740;;;9.8;82.5
68489;BME280;55481;48.764;8.936;2023-11-19T03:53:45;96730;;;9.8;82.5
68489;BME280;55481;48.764;8.936;2023-11-19T03:56:18;96720;;;9.9;82
68489;BME280;55481;48.764;8.936;2023-11-19T03:58:47;96730;;;9.8;82.5
68489;BME280;55481;48.764;8.936;2023-11-19T04:01:17;96730;;;9.8;82.5
68489;BME280;55481;48.764;8.936;2023-11-19T04:03:54;96730;;;9.8;82.5
68489;BME280;55481;48.764;8.936;2023-11-19T04:06:25;96730;;;9.9;82.5
68489;BME280;55481;48.764;8.936;2023-11-19T04:09:08;96730;;;10;82.5
68489;BME280;55481;48.764;8.936;2023-11-19T04:11:25;96730;;;10;82.5
68489;BME280;55481;48.764;8.936;2023-11-19T04:13:49;96740;;;10;82.5
68489;BME280;55481;48.764;8.936;2023-11-19T04:16:25;96740;;;10;82.5
68489;BME280;55481;48.764;8.936;2023-11-19T04:21:15;96740;;;10.1;82
68489;BME280;55481;48.764;8.936;2023-11-19T04:23:47;96740;;;10.1;82
68489;BME280;55481;48.764;8.936;2023-11-19T04:31:18;96740;;;10.1;82.5
68489;BME280;55481;48.764;8.936;2023-11-19T04:33:52;96740;;;10.1;82.5
68489;BME280;55481;48.764;8.936;2023-11-19T04:36:20;96740;;;10.1;82.5
68489;BME280;55481;48.764;8.936;2023-11-19T04:38:50;96750;;;10.2;82.5
68489;BME280;55481;48.764;8.936;2023-11-19T04:46:35;96740;;;10.2;82.5
68489;BME280;55481;48.764;8.936;2023-11-19T04:49:06;96740;;;10.1;82.5
68489;BME280;55481;48.764;8.936;2023-11-19T04:51:38;96740;;;10.1;82.5
68489;BME280;55481;48.764;8.936;2023-11-19T04:56:52;96740;;;10.2;82.5
68489;BME280;55481;48.764;8.936;2023-11-19T04:59:09;96750;;;10.2;82.5
68489;BME280;55481;48.764;8.936;2023-11-19T05:01:39;96750;;;10.3;82.5
68489;BME280;55481;48.764;8.936;2023-11-19T05:04:10;96740;;;10.3;82.5
68489;BME280;55481;48.764;8.936;2023-11-19T05:06:40;96740;;;10.3;82.5
68489;BME280;55481;48.764;8.936;2023-11-19T05:11:34;96740;;;10.3;82.5
68489;BME280;55481;48.764;8.936;2023-11-19T05:14:11;96740;;;10.3;82.5
68489;BME280;55481;48.764;8.936;2023-11-19T05:16:42;96750;;;10.3;82.5
68489;BME280;55481;48.764;8.936;2023-11-19T05:21:42;96750;;;10.3;82.5
68489;BME280;55481;48.764;8.936;2023-11-19T05:24:08;96750;;;10.4;82.5
68489;BME280;55481;48.764;8.936;2023-11-19T05:26:39;96750;;;10.5;82.5
68489;BME280;55481;48.764;8.936;2023-11-19T05:29:11;96750;;;10.5;82.5
68489;BME280;55481;48.764;8.936;2023-11-19T05:31:47;96750;;;10.4;82.5
68489;BME280;55481;48.764;8.936;2023-11-19T05:34:17;96740;;;10.4;83
68489;BME280;55481;48.764;8.936;2023-11-19T05:36:41;96750;;;10.5;83
68489;BME280;55481;48.764;8.936;2023-11-19T05:39:12;96750;;;10.6;82.5
68489;BME280;55481;48.764;8.936;2023-11-19T05:41:46;96750;;;10.7;82.5
68489;BME280;55481;48.764;8.936;2023-11-19T05:46:38;96740;;;10.8;82.5
68489;BME280;55481;48.764;8.936;2023-11-19T05:49:12;96740;;;10.8;82.5
68489;BME280;55481;48.764;8.936;2023-11-19T05:51:39;96740;;;10.8;82.5
68489;BME280;55481;48.764;8.936;2023-11-19T05:54:10;96740;;;10.7;82.5
68489;BME280;55481;48.764;8.936;2023-11-19T06:01:43;96730;;;10.7;83
68489;BME280;55481;48.764;8.936;2023-11-19T06:04:13;96740;;;10.8;83
68489;BME280;55481;48.764;8.936;2023-11-19T06:06:44;96730;;;10.8;82.5
68489;BME280;55481;48.764;8.936;2023-11-19T06:09:15;96740;;;10.9;82.5
68489;BME280;55481;48.764;8.936;2023-11-19T06:14:22;96750;;;10.9;82.5
68489;BME280;55481;48.764;8.936;2023-11-19T06:16:53;96750;;;11;82.5
68489;BME280;55481;48.764;8.936;2023-11-19T06:21:48;96740;;;10.9;82.5
68489;BME280;55481;48.764;8.936;2023-11-19T06:24:19;96750;;;10.8;82.5
68489;BME280;55481;48.764;8.936;2023-11-19T06:31:52;96750;;;10.8;82.5
68489;BME280;55481;48.764;8.936;2023-11-19T06:34:22;96750;;;10.7;83
68489;BME280;55481;48.764;8.936;2023-11-19T06:36:54;96750;;;10.8;83
68489;BME280;55481;48.764;8.936;2023-11-19T06:42:07;96750;;;10.9;82.5
68489;BME280;55481;48.764;8.936;2023-11-19T06:44:38;96750;;;10.9;82.5
68489;BME280;55481;48.764;8.936;2023-11-19T06:47:02;96750;;;10.9;82.5
68489;BME280;55481;48.764;8.936;2023-11-19T06:49:33;96750;;;10.9;82.5
68489;BME280;55481;48.764;8.936;2023-11-19T06:52:04;96750;;;11;82.5
68489;BME280;55481;48.764;8.936;2023-11-19T06:59:29;96750;;;11;82.5
68489;BME280;55481;48.764;8.936;2023-11-19T07:02:00;96750;;;11;82.5
68489;BME280;55481;48.764;8.936;2023-11-19T07:04:33;96750;;;11;82.5
68489;BME280;55481;48.764;8.936;2023-11-19T07:09:33;96730;;;11.1;82.5
68489;BME280;55481;48.764;8.936;2023-11-19T07:12:03;96750;;;11.1;82.5
68489;BME280;55481;48.764;8.936;2023-11-19T07:14:40;96750;;;11.2;82.5
68489;BME280;55481;48.764;8.936;2023-11-19T07:17:21;96760;;;11.2;82.5
68489;BME280;55481;48.764;8.936;2023-11-19T07:22:06;96760;;;11.2;82.5
68489;BME280;55481;48.764;8.936;2023-11-19T07:27:08;96760;;;11.3;82.5
68489;BME280;55481;48.764;8.936;2023-11-19T07:29:39;96770;;;11.3;82.5
68489;BME280;55481;48.764;8.936;2023-11-19T07:32:10;96770;;;11.3;82.5
68489;BME280;55481;48.764;8.936;2023-11-19T07:34:40;96770;;;11.2;82.5
68489;BME280;55481;48.764;8.936;2023-11-19T07:37:11;96780;;;11.2;83
68489;BME280;55481;48.764;8.936;2023-11-19T07:39:42;96770;;;11.3;83
68489;BME280;55481;48.764;8.936;2023-11-19T07:44:49;96780;;;11.3;83
68489;BME280;55481;48.764;8.936;2023-11-19T07:47:21;96780;;;11.3;83
68489;BME280;55481;48.764;8.936;2023-11-19T07:49:51;96790;;;11.5;82.5
68489;BME280;55481;48.764;8.936;2023-11-19T07:52:22;96790;;;11.5;82.5
68489;BME280;55481;48.764;8.936;2023-11-19T07:54:53;96790;;;11.4;82.5
68489;BME280;55481;48.764;8.936;2023-11-19T08:02:32;96800;;;11.4;83
68489;BME280;55481;48.764;8.936;2023-11-19T08:05:02;96800;;;11.5;83
68489;BME280;55481;48.764;8.936;2023-11-19T08:09:55;96800;;;11.6;82.5
68489;BME280;55481;48.764;8.936;2023-11-19T08:12:29;96800;;;11.5;82.5
68489;BME280;55481;48.764;8.936;2023-11-19T08:14:57;96790;;;11.5;82.5
68489;BME280;55481;48.764;8.936;2023-11-19T08:17:22;96810;;;11.4;83
68489;BME280;55481;48.764;8.936;2023-11-19T08:20:05;96800;;;11.2;83.5
68489;BME280;55481;48.764;8.936;2023-11-19T08:22:36;96800;;;11.1;83.5
68489;BME280;55481;48.764;8.936;2023-11-19T08:25:04;96800;;;11.1;84
68489;BME280;55481;48.764;8.936;2023-11-19T08:27:37;96810;;;11.1;84
68489;BME280;55481;48.764;8.936;2023-11-19T08:32:32;96820;;;11.3;83.5
68489;BME280;55481;48.764;8.936;2023-11-19T08:35:03;96820;;;11.3;83.5
68489;BME280;55481;48.764;8.936;2023-11-19T08:37:34;96820;;;11.3;83.5
68489;BME280;55481;48.764;8.936;2023-11-19T08:40:05;96810;;;11.2;83.5
68489;BME280;55481;48.764;8.936;2023-11-19T08:42:37;96830;;;11.2;84
68489;BME280;55481;48.764;8.936;2023-11-19T08:45:08;96830;;;11.2;83.5
68489;BME280;55481;48.764;8.936;2023-11-19T08:47:37;96820;;;11.3;84
68489;BME280;55481;48.764;8.936;2023-11-19T08:50:01;96820;;;11.4;83.5
68489;BME280;55481;48.764;8.936;2023-11-19T08:57:34;96810;;;11.8;83
68489;BME280;55481;48.764;8.936;2023-11-19T09:00:09;96820;;;12;83
68489;BME280;55481;48.764;8.936;2023-11-19T09:02:36;96820;;;12.2;82.5
68489;BME280;55481;48.764;8.936;2023-11-19T09:05:07;96810;;;12.4;82
68489;BME280;55481;48.764;8.936;2023-11-19T09:07:43;96810;;;12.4;82
68489;BME280;55481;48.764;8.936;2023-11-19T09:10:17;96820;;;12.3;82
68489;BME280;55481;48.764;8.936;2023-11-19T09:12:46;96810;;;12.4;82
68489;BME280;55481;48.764;8.936;2023-11-19T09:15:17;96810;;;12.5;82
68489;BME280;55481;48.764;8.936;2023-11-19T09:17:54;96820;;;12.6;82
68489;BME280;55481;48.764;8.936;2023-11-19T09:20:24;96810;;;12.7;82
68489;BME280;55481;48.764;8.936;2023-11-19T09:27:49;96810;;;13.1;81.5
68489;BME280;55481;48.764;8.936;2023-11-19T09:30:20;96830;;;13;81.5
68489;BME280;55481;48.764;8.936;2023-11-19T09:32:56;96830;;;13.1;82
68489;BME280;55481;48.764;8.936;2023-11-19T09:35:28;96820;;;13.3;82
68489;BME280;55481;48.764;8.936;2023-11-19T09:37:58;96820;;;13.5;81
68489;BME280;55481;48.764;8.936;2023-11-19T09:40:28;96820;;;13.7;81
68489;BME280;55481;48.764;8.936;2023-11-19T09:43:00;96810;;;13.8;81
68489;BME280;55481;48.764;8.936;2023-11-19T09:45:29;96810;;;14;80.5
68489;BME280;55481;48.764;8.936;2023-11-19T09:48:00;96810;;;14.2;80.5
68489;BME280;55481;48.764;8.936;2023-11-19T09:52:47;96800;;;14.2;81
68489;BME280;55481;48.764;8.936;2023-11-19T09:55:17;96810;;;14.2;81
68489;BME280;55481;48.764;8.936;2023-11-19T10:00:20;96800;;;13.9;81.5
68489;BME280;55481;48.764;8.936;2023-11-19T10:02:50;96800;;;14;82
68489;BME280;55481;48.764;8.936;2023-11-19T10:05:21;96790;;;14.3;81
68489;BME280;55481;48.764;8.936;2023-11-19T10:15:24;96790;;;13.8;82
68489;BME280;55481;48.764;8.936;2023-11-19T10:20:40;96790;;;13.9;82
68489;BME280;55481;48.764;8.936;2023-11-19T10:23:08;96790;;;13.9;82
68489;BME280;55481;48.764;8.936;2023-11-19T10:25:38;96790;;;14.3;81.5
68489;BME280;55481;48.764;8.936;2023-11-19T10:28:02;96780;;;14.4;81
68489;BME280;55481;48.764;8.936;2023-11-19T10:30:40;96780;;;14.4;81.5
68489;BME280;55481;48.764;8.936;2023-11-19T10:35:37;96780;;;14.5;81
68489;BME280;55481;48.764;8.936;2023-11-19T10:38:14;96780;;;14.5;81.5
68489;BME280;55481;48.764;8.936;2023-11-19T10:43:14;96780;;;14.5;81.5
68489;BME280;55481;48.764;8.936;2023-11-19T10:45:45;96780;;;14.5;81.5
68489;BME280;55481;48.764;8.936;2023-11-19T10:48:15;96770;;;14.8;81
68489;BME280;55481;48.764;8.936;2023-11-19T10:53:09;96760;;;15;81
68489;BME280;55481;48.764;8.936;2023-11-19T10:55:39;96770;;;14.9;81
68489;BME280;55481;48.764;8.936;2023-11-19T10:59:48;96760;;;14.7;82.5
68489;BME280;55481;48.764;8.936;2023-11-19T11:02:06;96770;;;14.9;83
68489;BME280;55481;48.764;8.936;2023-11-19T11:04:39;96770;;;14.8;83.5
68489;BME280;55481;48.764;8.936;2023-11-19T11:07:07;96770;;;14.8;83.5
68489;BME280;55481;48.764;8.936;2023-11-19T11:09:38;96770;;;14.8;83
68489;BME280;55481;48.764;8.936;2023-11-19T11:12:09;96780;;;14.5;83
68489;BME280;55481;48.764;8.936;2023-11-19T11:14:46;96770;;;14.4;83.5
68489;BME280;55481;48.764;8.936;2023-11-19T11:17:17;96780;;;14.5;83
68489;BME280;55481;48.764;8.936;2023-11-19T11:19:56;96780;;;14.5;83
68489;BME280;55481;48.764;8.936;2023-11-19T11:24:48;96780;;;14.4;83
68489;BME280;55481;48.764;8.936;2023-11-19T11:32:33;96770;;;14.9;82
68489;BME280;55481;48.764;8.936;2023-11-19T11:34:53;96780;;;15;81.5
68489;BME280;55481;48.764;8.936;2023-11-19T11:37:19;96770;;;14.9;81.5
68489;BME280;55481;48.764;8.936;2023-11-19T11:39:49;96770;;;14.9;82
68489;BME280;55481;48.764;8.936;2023-11-19T11:49:51;96760;;;14.8;82
68489;BME280;55481;48.764;8.936;2023-11-19T11:52:22;96740;;;14.8;82
68489;BME280;55481;48.764;8.936;2023-11-19T11:54:53;96750;;;14.9;82
68489;BME280;55481;48.764;8.936;2023-11-19T12:02:38;96760;;;15.2;81.5
68489;BME280;55481;48.764;8.936;2023-11-19T12:05:07;96760;;;15.3;81.5
68489;BME280;55481;48.764;8.936;2023-11-19T12:07:38;96760;;;15.3;81
68489;BME280;55481;48.764;8.936;2023-11-19T12:10:06;96760;;;15;81.5
68489;BME280;55481;48.764;8.936;2023-11-19T12:12:39;96760;;;14.9;82
68489;BME280;55481;48.764;8.936;2023-11-19T12:22:43;96740;;;14.8;82
68489;BME280;55481;48.764;8.936;2023-11-19T12:25:19;96740;;;14.5;82
68489;BME280;55481;48.764;8.936;2023-11-19T12:27:50;96740;;;14.6;82
68489;BME280;55481;48.764;8.936;2023-11-19T12:30:17;96740;;;14.6;82
68489;BME280;55481;48.764;8.936;2023-11-19T12:32:44;96740;;;14.6;82
68489;BME280;55481;48.764;8.936;2023-11-19T12:35:14;96730;;;14.6;82
68489;BME280;55481;48.764;8.936;2023-11-19T12:37:44;96740;;;14.6;82
68489;BME280;55481;48.764;8.936;2023-11-19T12:40:17;96740;;;14.7;81.5
68489;BME280;55481;48.764;8.936;2023-11-19T12:42:40;96740;;;14.6;82
68489;BME280;55481;48.764;8.936;2023-11-19T12:45:10;96730;;;14.7;81.5
68489;BME280;55481;48.764;8.936;2023-11-19T12:47:47;96720;;;14.8;81.5
68489;BME280;55481;48.764;8.936;2023-11-19T12:50:18;96720;;;15;81.5
68489;BME280;55481;48.764;8.936;2023-11-19T12:55:32;96720;;;15.1;81
68489;BME280;55481;48.764;8.936;2023-11-19T12:57:49;96720;;;15;81
68489;BME280;55481;48.764;8.936;2023-11-19T13:00:21;96720;;;15.1;81.5
68489;BME280;55481;48.764;8.936;2023-11-19T13:05:22;96720;;;15.1;81
68489;BME280;55481;48.764;8.936;2023-11-19T13:10:16;96730;;;14.7;82
68489;BME280;55481;48.764;8.936;2023-11-19T13:12:59;96730;;;14.6;82
68489;BME280;55481;48.764;8.936;2023-11-19T13:15:23;96720;;;14.6;82
68489;BME280;55481;48.764;8.936;2023-11-19T13:17:54;96720;;;14.7;81.5
68489;BME280;55481;48.764;8.936;2023-11-19T13:20:26;96720;;;14.7;81.5
68489;BME280;55481;48.764;8.936;2023-11-19T13:22:59;96730;;;14.8;81.5
68489;BME280;55481;48.764;8.936;2023-11-19T13:27:49;96730;;;14.7;81.5
68489;BME280;55481;48.764;8.936;2023-11-19T13:30:26;96720;;;14.6;81.5
68489;BME280;55481;48.764;8.936;2023-11-19T13:37:59;96710;;;14.3;82
68489;BME280;55481;48.764;8.936;2023-11-19T13:40:29;96710;;;14.3;82
68489;BME280;55481;48.764;8.936;2023-11-19T13:43:00;96710;;;14.2;82
68489;BME280;55481;48.764;8.936;2023-11-19T13:45:30;96710;;;14.2;82
68489;BME280;55481;48.764;8.936;2023-11-19T13:50:24;96700;;;14.1;82
68489;BME280;55481;48.764;8.936;2023-11-19T13:52:55;96700;;;14;82
68489;BME280;55481;48.764;8.936;2023-11-19T13:55:26;96700;;;13.9;82
68489;BME280;55481;48.764;8.936;2023-11-19T13:57:50;96700;;;13.9;82
68489;BME280;55481;48.764;8.936;2023-11-19T14:00:21;96700;;;13.9;82
68489;BME280;55481;48.764;8.936;2023-11-19T14:02:52;96710;;;13.9;82
68489;BME280;55481;48.764;8.936;2023-11-19T14:07:53;96700;;;14.2;81
68489;BME280;55481;48.764;8.936;2023-11-19T14:17:57;96700;;;13.8;81.5
68489;BME280;55481;48.764;8.936;2023-11-19T14:20:27;96690;;;13.8;82
68489;BME280;55481;48.764;8.936;2023-11-19T14:23:11;96690;;;13.8;82
68489;BME280;55481;48.764;8.936;2023-11-19T14:25:41;96690;;;13.7;81.5
68489;BME280;55481;48.764;8.936;2023-11-19T14:28:12;96700;;;13.6;81.5
68489;BME280;55481;48.764;8.936;2023-11-19T14:33:05;96690;;;13.6;82
68489;BME280;55481;48.764;8.936;2023-11-19T14:35:36;96700;;;13.5;82
68489;BME280;55481;48.764;8.936;2023-11-19T14:38:11;96690;;;13.4;82
68489;BME280;55481;48.764;8.936;2023-11-19T14:40:48;96690;;;13.4;82
68489;BME280;55481;48.764;8.936;2023-11-19T14:43:21;96690;;;13.4;82
68489;BME280;55481;48.764;8.936;2023-11-19T14:45:52;96700;;;13.4;82
68489;BME280;55481;48.764;8.936;2023-11-19T14:48:08;96700;;;13.3;82
68489;BME280;55481;48.764;8.936;2023-11-19T14:50:44;96700;;;13.3;82
68489;BME280;55481;48.764;8.936;2023-11-19T14:53:11;96710;;;13.3;81.5
68489;BME280;55481;48.764;8.936;2023-11-19T15:00:36;96710;;;13;82
68489;BME280;55481;48.764;8.936;2023-11-19T15:08:07;96710;;;12.9;82
68489;BME280;55481;48.764;8.936;2023-11-19T15:10:38;96710;;;12.9;82
68489;BME280;55481;48.764;8.936;2023-11-19T15:13:09;96720;;;12.7;82
68489;BME280;55481;48.764;8.936;2023-11-19T15:15:40;96710;;;12.6;82
68489;BME280;55481;48.764;8.936;2023-11-19T15:20:48;96710;;;12.7;82
68489;BME280;55481;48.764;8.936;2023-11-19T15:23:18;96710;;;12.7;82
68489;BME280;55481;48.764;8.936;2023-11-19T15:25:49;96720;;;12.6;82
68489;BME280;55481;48.764;8.936;2023-11-19T15:28:13;96720;;;12.5;82
68489;BME280;55481;48.764;8.936;2023-11-19T15:35:45;96710;;;12.3;82
68489;BME280;55481;48.764;8.936;2023-11-19T15:38:17;96710;;;12.4;82
68489;BME280;55481;48.764;8.936;2023-11-19T15:40:47;96700;;;12.3;82
68489;BME280;55481;48.764;8.936;2023-11-19T15:43:18;96710;;;12.2;82
68489;BME280;55481;48.764;8.936;2023-11-19T15:45:49;96700;;;12.2;82
68489;BME280;55481;48.764;8.936;2023-11-19T15:50:50;96700;;;12.1;82
68489;BME280;55481;48.764;8.936;2023-11-19T15:53:21;96700;;;12;82
68489;BME280;55481;48.764;8.936;2023-11-19T15:55:52;96700;;;12;82.5
68489;BME280;55481;48.764;8.936;2023-11-19T16:03:24;96700;;;11.9;82
68489;BME280;55481;48.764;8.936;2023-11-19T16:08:32;96700;;;11.8;82
68489;BME280;55481;48.764;8.936;2023-11-19T16:11:03;96710;;;11.8;82
68489;BME280;55481;48.764;8.936;2023-11-19T16:15:58;96710;;;11.7;82
68489;BME280;55481;48.764;8.936;2023-11-19T16:18:28;96710;;;11.7;82
68489;BME280;55481;48.764;8.936;2023-11-19T16:20:59;96710;;;11.7;82
68489;BME280;55481;48.764;8.936;2023-11-19T16:23:30;96700;;;11.7;82
68489;BME280;55481;48.764;8.936;2023-11-19T16:31:03;96700;;;11.8;81.5
68489;BME280;55481;48.764;8.936;2023-11-19T16:33:46;96700;;;11.9;81.5
68489;BME280;55481;48.764;8.936;2023-11-19T16:36:16;96710;;;11.8;81.5
68489;BME280;55481;48.764;8.936;2023-11-19T16:38:41;96720;;;11.8;81.5
68489;BME280;55481;48.764;8.936;2023-11-19T16:41:11;96710;;;11.7;81.5
68489;BME280;55481;48.764;8.936;2023-11-19T16:43:43;96720;;;11.6;81.5
68489;BME280;55481;48.764;8.936;2023-11-19T16:46:20;96720;;;11.6;82
68489;BME280;55481;48.764;8.936;2023-11-19T16:48:50;96730;;;11.7;81.5
68489;BME280;55481;48.764;8.936;2023-11-19T16:51:14;96730;;;11.8;81.5
68489;BME280;55481;48.764;8.936;2023-11-19T16:53:45;96720;;;11.7;81.5
68489;BME280;55481;48.764;8.936;2023-11-19T16:56:16;96720;;;11.6;81.5
68489;BME280;55481;48.764;8.936;2023-11-19T17:01:10;96720;;;11.5;81.5
68489;BME280;55481;48.764;8.936;2023-11-19T17:03:41;96720;;;11.5;82
68489;BME280;55481;48.764;8.936;2023-11-19T17:06:12;96730;;;11.5;81.5
68489;BME280;55481;48.764;8.936;2023-11-19T17:08:43;96730;;;11.5;81.5
68489;BME280;55481;48.764;8.936;2023-11-19T17:16:15;96760;;;11.3;82
68489;BME280;55481;48.764;8.936;2023-11-19T17:18:46;96760;;;11.3;82
68489;BME280;55481;48.764;8.936;2023-11-19T17:21:23;96760;;;11.3;82
68489;BME280;55481;48.764;8.936;2023-11-19T17:23:55;96770;;;11.3;81.5
68489;BME280;55481;48.764;8.936;2023-11-19T17:26:25;96780;;;11.3;82
68489;BME280;55481;48.764;8.936;2023-11-19T17:28:56;96780;;;11.3;81.5
68489;BME280;55481;48.764;8.936;2023-11-19T17:31:31;96770;;;11.3;81.5
68489;BME280;55481;48.764;8.936;2023-11-19T17:34:04;96770;;;11.3;81.5
68489;BME280;55481;48.764;8.936;2023-11-19T17:36:28;96770;;;11.2;81.5
68489;BME280;55481;48.764;8.936;2023-11-19T17:38:59;96750;;;11.2;81.5
68489;BME280;55481;48.764;8.936;2023-11-19T17:41:32;96740;;;11.3;81.5
68489;BME280;55481;48.764;8.936;2023-11-19T17:44:08;96750;;;11.4;81
68489;BME280;55481;48.764;8.936;2023-11-19T17:49:03;96740;;;11.4;81.5
68489;BME280;55481;48.764;8.936;2023-11-19T17:51:35;96730;;;11.4;81
68489;BME280;55481;48.764;8.936;2023-11-19T17:54:05;96740;;;11.6;81
68489;BME280;55481;48.764;8.936;2023-11-19T17:56:36;96740;;;11.6;81
68489;BME280;55481;48.764;8.936;2023-11-19T17:59:07;96750;;;11.5;81
68489;BME280;55481;48.764;8.936;2023-11-19T18:06:40;96740;;;11.3;81
68489;BME280;55481;48.764;8.936;2023-11-19T18:09:08;96740;;;11.2;81.5
68489;BME280;55481;48.764;8.936;2023-11-19T18:16:40;96750;;;11.4;81
68489;BME280;55481;48.764;8.936;2023-11-19T18:19:11;96770;;;11.3;81
68489;BME280;55481;48.764;8.936;2023-11-19T18:21:41;96770;;;11.1;81.5
68489;BME280;55481;48.764;8.936;2023-11-19T18:24:11;96780;;;10.9;81.5
68489;BME280;55481;48.764;8.936;2023-11-19T18:26:56;96780;;;10.8;82
68489;BME280;55481;48.764;8.936;2023-11-19T18:29:23;96780;;;10.9;82
68489;BME280;55481;48.764;8.936;2023-11-19T18:32:06;96770;;;10.9;82
68489;BME280;55481;48.764;8.936;2023-11-19T18:34:24;96770;;;10.8;82
68489;BME280;55481;48.764;8.936;2023-11-19T18:41:46;96770;;;11.1;81.5
68489;BME280;55481;48.764;8.936;2023-11-19T18:44:14;96760;;;11.2;81
68489;BME280;55481;48.764;8.936;2023-11-19T18:46:44;96770;;;11.3;81
68489;BME280;55481;48.764;8.936;2023-11-19T18:49:15;96760;;;11.5;80.5
68489;BME280;55481;48.764;8.936;2023-11-19T18:51:45;96750;;;11.5;80.5
68489;BME280;55481;48.764;8.936;2023-11-19T18:54:16;96750;;;11.5;80.5
68489;BME280;55481;48.764;8.936;2023-11-19T18:56:46;96750;;;11.5;80.5
68489;BME280;55481;48.764;8.936;2023-11-19T18:59:17;96770;;;11.5;80.5
68489;BME280;55481;48.764;8.936;2023-11-19T19:01:47;96770;;;11.4;80.5
68489;BME280;55481;48.764;8.936;2023-11-19T19:09:30;96780;;;11.6;80.5